createdAt,value
2022-10-25T00:04:50.584Z,15.80
2022-10-25T00:09:52.703Z,15.80
2022-10-25T00:14:54.832Z,15.70
2022-10-25T00:19:56.921Z,15.70
2022-10-25T00:30:02.421Z,15.60
2022-10-25T00:35:04.912Z,15.70
2022-10-25T00:40:07.694Z,15.70
2022-10-25T00:45:30.026Z,15.70
2022-10-25T00:50:34.917Z,15.60
2022-10-25T00:55:40.679Z,15.70
2022-10-25T01:00:45.139Z,15.70
2022-10-25T01:05:48.603Z,15.60
2022-10-25T01:10:51.007Z,15.70
2022-10-25T01:16:14.414Z,15.60
2022-10-25T01:21:30.654Z,15.50
2022-10-25T01:26:45.666Z,15.50
2022-10-25T01:32:18.637Z,15.50
2022-10-25T01:37:34.762Z,15.40
2022-10-25T01:42:53.516Z,15.30
2022-10-25T01:48:09.537Z,15.20
2022-10-25T01:53:12.397Z,15.20
2022-10-25T01:58:24.192Z,15.20
2022-10-25T02:03:45.679Z,15.20
2022-10-25T02:08:56.641Z,15.20
2022-10-25T02:14:20.803Z,15.20
2022-10-25T02:19:33.814Z,15.20
2022-10-25T02:24:37.649Z,15.20
2022-10-25T02:29:41.447Z,15.10
2022-10-25T02:34:47.506Z,15.10
2022-10-25T02:39:51.340Z,15.00
2022-10-25T02:44:53.427Z,15.00
2022-10-25T02:54:58.088Z,14.90
2022-10-25T03:05:03.095Z,14.80
2022-10-25T03:10:05.831Z,14.80
2022-10-25T03:15:08.073Z,14.80
2022-10-25T03:20:10.507Z,14.70
2022-10-25T03:25:12.581Z,14.90
2022-10-25T03:30:15.677Z,14.60
2022-10-25T03:35:17.820Z,14.60
2022-10-25T03:40:20.907Z,14.60
2022-10-25T03:45:23.366Z,14.60
2022-10-25T04:00:30.984Z,14.50
2022-10-25T04:05:33.290Z,14.50
2022-10-25T04:10:35.575Z,14.50
2022-10-25T04:15:38.811Z,14.50
2022-10-25T04:25:43.413Z,14.50
2022-10-25T04:30:45.471Z,14.50
2022-10-25T04:35:57.322Z,14.50
2022-10-25T04:41:01.073Z,14.50
2022-10-25T04:46:03.851Z,14.50
2022-10-25T04:51:05.874Z,14.60
2022-10-25T04:56:11.848Z,14.50
2022-10-25T05:01:16.375Z,14.50
2022-10-25T05:06:22.172Z,14.40
2022-10-25T05:11:25.341Z,14.40
2022-10-25T05:21:31.129Z,14.40
2022-10-25T05:26:34.138Z,14.40
2022-10-25T05:31:38.559Z,14.40
2022-10-25T05:36:40.709Z,14.40
2022-10-25T05:41:42.882Z,14.60
2022-10-25T05:46:45.401Z,14.30
2022-10-25T05:51:47.472Z,14.40
2022-10-25T05:56:49.575Z,14.20
2022-10-25T06:01:51.797Z,14.10
2022-10-25T06:06:54.110Z,14.10
2022-10-25T06:11:56.137Z,14.10
2022-10-25T06:16:58.267Z,14.10
2022-10-25T06:22:01.824Z,14.10
2022-10-25T06:27:04.072Z,14.10
2022-10-25T06:32:06.151Z,14.00
2022-10-25T06:37:08.214Z,14.20
2022-10-25T06:42:10.317Z,14.00
2022-10-25T06:52:20.177Z,13.90
2022-10-25T06:57:22.249Z,13.90
2022-10-25T07:02:24.430Z,13.90
2022-10-25T07:07:26.678Z,13.90
2022-10-25T07:12:29.646Z,14.00
2022-10-25T07:17:32.119Z,14.10
2022-10-25T07:22:34.389Z,14.20
2022-10-25T07:27:36.444Z,14.10
2022-10-25T07:32:41.647Z,14.90
2022-10-25T07:37:44.967Z,15.10
2022-10-25T07:42:49.705Z,15.40
2022-10-25T07:47:52.229Z,15.60
2022-10-25T07:52:57.413Z,16.00
2022-10-25T07:58:04.224Z,15.90
2022-10-25T08:03:06.774Z,16.20
2022-10-25T08:08:08.833Z,16.40
2022-10-25T08:13:11.451Z,16.90
2022-10-25T08:18:13.451Z,16.90
2022-10-25T08:23:15.982Z,17.10
2022-10-25T08:28:18.309Z,17.40
2022-10-25T08:33:20.412Z,17.80
2022-10-25T08:38:22.512Z,17.90
2022-10-25T08:43:48.929Z,18.00
2022-10-25T08:49:02.556Z,18.10
2022-10-25T08:54:31.976Z,18.20
2022-10-25T08:59:37.428Z,18.30
2022-10-25T09:04:39.564Z,18.30
2022-10-25T09:10:02.190Z,18.30
2022-10-25T09:20:25.094Z,18.20
2022-10-25T09:26:02.034Z,18.20
2022-10-25T09:31:05.321Z,18.20
2022-10-25T09:36:08.695Z,18.10
2022-10-25T09:41:22.673Z,18.20
2022-10-25T09:46:40.220Z,18.10
2022-10-25T09:51:57.536Z,18.10
2022-10-25T09:56:59.817Z,18.40
2022-10-25T10:02:02.129Z,18.40
2022-10-25T10:07:20.559Z,18.50
2022-10-25T10:12:33.558Z,18.80
2022-10-25T10:17:35.601Z,18.80
2022-10-25T10:22:52.382Z,18.90
2022-10-25T10:27:57.789Z,19.10
2022-10-25T10:33:01.481Z,19.20
2022-10-25T10:38:22.805Z,19.40
2022-10-25T10:43:34.149Z,19.50
2022-10-25T10:48:42.110Z,19.80
2022-10-25T10:53:45.390Z,20.10
2022-10-25T10:58:53.708Z,20.40
2022-10-25T11:04:01.003Z,20.40
2022-10-25T11:09:12.197Z,20.60
2022-10-25T11:14:16.403Z,20.70
2022-10-25T11:19:31.202Z,20.70
2022-10-25T11:24:46.076Z,20.90
2022-10-25T11:29:56.398Z,21.00
2022-10-25T11:35:07.252Z,21.10
2022-10-25T11:40:17.549Z,21.30
2022-10-25T11:45:42.965Z,21.40
2022-10-25T11:51:06.465Z,21.40
2022-10-25T11:56:14.663Z,21.60
2022-10-25T12:01:38.039Z,21.70
2022-10-25T12:06:58.801Z,21.70
2022-10-25T12:12:05.210Z,21.70
2022-10-25T12:17:30.015Z,21.70
2022-10-25T12:22:39.377Z,21.80
2022-10-25T12:27:44.758Z,21.60
2022-10-25T12:33:01.792Z,21.60
2022-10-25T12:38:18.559Z,21.80
2022-10-25T12:43:33.830Z,21.80
2022-10-25T12:48:53.734Z,21.90
2022-10-25T12:54:19.332Z,21.90
2022-10-25T13:00:01.433Z,22.00
2022-10-25T13:05:15.442Z,22.10
2022-10-25T13:10:22.032Z,22.30
2022-10-25T13:15:24.910Z,22.40
2022-10-25T13:20:36.149Z,22.60
2022-10-25T13:25:58.147Z,22.70
2022-10-25T13:31:28.239Z,22.80
2022-10-25T13:36:48.937Z,22.70
2022-10-25T13:41:54.598Z,22.80
2022-10-25T13:46:57.025Z,22.80
2022-10-25T13:52:04.960Z,22.90
2022-10-25T13:57:47.331Z,23.10
2022-10-25T14:03:08.165Z,23.40
2022-10-25T14:08:40.370Z,23.50
2022-10-25T14:13:48.578Z,24.10
2022-10-25T14:18:52.959Z,24.10
2022-10-25T14:23:55.763Z,24.10
2022-10-25T14:29:14.327Z,24.10
2022-10-25T14:34:22.265Z,23.70
2022-10-25T14:39:30.483Z,23.30
2022-10-25T14:44:45.347Z,23.10
2022-10-25T14:49:47.503Z,22.90
2022-10-25T14:54:55.751Z,22.50
2022-10-25T15:00:02.120Z,22.20
2022-10-25T15:05:05.723Z,22.00
2022-10-25T15:10:30.461Z,21.80
2022-10-25T15:15:36.654Z,21.70
2022-10-25T15:20:38.743Z,21.60
2022-10-25T15:25:40.888Z,21.40
2022-10-25T15:30:49.847Z,21.10
2022-10-25T15:36:00.611Z,21.10
2022-10-25T15:41:02.892Z,20.90
2022-10-25T15:51:11.696Z,20.50
2022-10-25T15:56:17.031Z,20.20
2022-10-25T16:01:19.487Z,20.10
2022-10-25T16:06:21.612Z,20.00
2022-10-25T16:11:23.951Z,19.80
2022-10-25T16:16:39.876Z,19.60
2022-10-25T16:21:43.302Z,19.40
2022-10-25T16:26:48.441Z,19.10
2022-10-25T16:31:51.714Z,18.80
2022-10-25T16:36:53.899Z,18.70
2022-10-25T16:41:58.255Z,18.60
2022-10-25T16:47:00.327Z,18.40
2022-10-25T16:57:04.993Z,17.80
2022-10-25T17:02:15.828Z,17.70
2022-10-25T17:07:18.101Z,17.70
2022-10-25T17:12:20.156Z,17.50
2022-10-25T17:22:27.237Z,17.20
2022-10-25T17:27:29.412Z,17.10
2022-10-25T17:32:31.791Z,16.90
2022-10-25T17:42:36.587Z,16.60
2022-10-25T17:47:42.349Z,16.60
2022-10-25T17:52:44.398Z,16.40
2022-10-25T17:57:47.040Z,16.30
2022-10-25T18:02:50.642Z,16.40
2022-10-25T18:12:55.542Z,16.00
2022-10-25T18:23:00.240Z,15.50
2022-10-25T18:28:02.492Z,15.80
2022-10-25T18:33:09.023Z,15.70
2022-10-25T18:43:20.387Z,15.60
2022-10-25T18:48:22.496Z,15.40
2022-10-25T18:53:24.672Z,15.40
2022-10-25T18:58:29.623Z,15.30
2022-10-25T19:03:31.724Z,15.20
2022-10-25T19:08:35.289Z,15.20
2022-10-25T19:13:37.685Z,15.20
2022-10-25T19:18:40.682Z,15.10
2022-10-25T19:23:44.544Z,15.10
2022-10-25T19:33:51.171Z,15.10
2022-10-25T19:38:53.291Z,15.00
2022-10-25T19:43:56.685Z,15.00
2022-10-25T19:49:00.207Z,14.90
2022-10-25T19:59:06.241Z,14.90
2022-10-25T20:04:08.377Z,14.90
2022-10-25T20:14:13.121Z,14.80
2022-10-25T20:19:15.347Z,14.70
2022-10-25T20:24:18.068Z,14.80
2022-10-25T20:29:21.535Z,15.00
2022-10-25T20:34:23.868Z,14.70
2022-10-25T20:39:26.036Z,14.70
2022-10-25T20:44:28.094Z,14.70
2022-10-25T20:49:30.124Z,14.70
2022-10-25T20:54:32.180Z,14.60
2022-10-25T20:59:34.242Z,14.60
2022-10-25T21:04:49.410Z,14.60
2022-10-25T21:09:55.076Z,14.60
2022-10-25T21:14:57.222Z,14.50
2022-10-25T21:19:59.325Z,14.50
2022-10-25T21:25:01.383Z,14.50
2022-10-25T21:30:04.453Z,14.50
2022-10-25T21:35:06.762Z,14.50
2022-10-25T21:40:10.019Z,14.40
2022-10-25T21:45:12.190Z,14.50
2022-10-25T21:50:15.646Z,14.40
2022-10-25T21:55:17.696Z,14.50
2022-10-25T22:00:19.844Z,14.50
2022-10-25T22:05:21.910Z,14.50
2022-10-25T22:10:24.624Z,14.50
2022-10-25T22:15:27.532Z,14.50
2022-10-25T22:20:29.549Z,14.50
2022-10-25T22:25:32.882Z,14.50
2022-10-25T22:30:34.966Z,14.60
2022-10-25T22:35:37.068Z,14.60
2022-10-25T22:40:39.157Z,14.60
2022-10-25T22:45:41.225Z,14.60
2022-10-25T22:50:51.137Z,14.70
2022-10-25T22:56:01.894Z,14.70
2022-10-25T23:01:09.832Z,14.70
2022-10-25T23:06:18.206Z,14.70
2022-10-25T23:11:30.729Z,14.70
2022-10-25T23:16:33.126Z,14.80
2022-10-25T23:21:35.206Z,14.80
2022-10-25T23:26:37.366Z,14.90
2022-10-25T23:31:39.416Z,14.90
2022-10-25T23:36:41.615Z,14.90
2022-10-25T23:46:46.304Z,15.00
2022-10-25T23:51:48.495Z,15.00
2022-10-25T23:56:50.557Z,15.10
